createdAt,value
2022-12-01T00:03:35.008Z,97881.00
2022-12-01T00:07:37.715Z,97875.97
2022-12-01T00:11:40.376Z,97863.09
2022-12-01T00:15:43.018Z,97869.13
2022-12-01T00:19:47.310Z,97867.59
2022-12-01T00:23:52.478Z,97857.91
2022-12-01T00:27:55.473Z,97859.19
2022-12-01T00:31:58.713Z,97860.31
2022-12-01T00:36:03.444Z,97859.88
2022-12-01T00:40:08.066Z,97852.31
2022-12-01T00:44:10.857Z,97852.59
2022-12-01T00:48:13.634Z,97865.78
2022-12-01T00:52:18.153Z,97871.94
2022-12-01T00:56:21.330Z,97879.25
2022-12-01T01:00:23.986Z,97871.38
2022-12-01T01:04:26.677Z,97882.91
2022-12-01T01:08:30.721Z,97877.03
2022-12-01T01:12:33.396Z,97878.00
2022-12-01T01:16:36.288Z,97871.41
2022-12-01T01:20:39.027Z,97887.56
2022-12-01T01:24:43.014Z,97873.97
2022-12-01T01:28:46.010Z,97876.47
2022-12-01T01:32:48.680Z,97881.25
2022-12-01T01:36:51.447Z,97873.84
2022-12-01T01:40:55.821Z,97868.09
2022-12-01T01:44:59.978Z,97879.72
2022-12-01T01:49:07.941Z,97876.66
2022-12-01T01:53:15.385Z,97874.13
2022-12-01T01:57:24.873Z,97869.94
2022-12-01T02:01:27.630Z,97865.03
2022-12-01T02:05:33.390Z,97857.63
2022-12-01T02:09:36.624Z,97858.72
2022-12-01T02:13:51.293Z,97867.28
2022-12-01T02:18:07.239Z,97869.53
2022-12-01T02:22:24.791Z,97868.13
2022-12-01T02:26:40.394Z,97864.75
2022-12-01T02:30:48.790Z,97859.44
2022-12-01T02:34:58.718Z,97858.47
2022-12-01T02:39:08.843Z,97866.59
2022-12-01T02:43:17.231Z,97845.75
2022-12-01T02:47:21.855Z,97844.75
2022-12-01T02:51:29.089Z,97843.47
2022-12-01T02:55:31.796Z,97845.59
2022-12-01T02:59:34.433Z,97835.94
2022-12-01T03:03:58.528Z,97844.59
2022-12-01T03:08:07.420Z,97838.16
2022-12-01T03:12:20.917Z,97840.97
2022-12-01T03:16:32.832Z,97839.84
2022-12-01T03:20:41.399Z,97830.47
2022-12-01T03:24:48.393Z,97837.88
2022-12-01T03:28:55.999Z,97840.41
2022-12-01T03:33:05.021Z,97826.28
2022-12-01T03:37:14.645Z,97832.13
2022-12-01T03:41:21.130Z,97822.19
2022-12-01T03:45:31.425Z,97828.50
2022-12-01T03:49:35.213Z,97826.00
2022-12-01T03:53:49.874Z,97830.91
2022-12-01T03:57:57.497Z,97825.16
2022-12-01T04:02:00.255Z,97834.09
2022-12-01T04:06:03.086Z,97838.31
2022-12-01T04:10:08.961Z,97838.84
2022-12-01T04:14:11.662Z,97826.41
2022-12-01T04:18:14.392Z,97825.56
2022-12-01T04:22:17.098Z,97835.09
2022-12-01T04:26:21.177Z,97831.88
2022-12-01T04:30:23.892Z,97836.19
2022-12-01T04:34:26.552Z,97831.88
2022-12-01T04:38:30.985Z,97825.56
2022-12-01T04:42:35.193Z,97816.34
2022-12-01T04:46:37.976Z,97823.63
2022-12-01T04:50:42.044Z,97826.00
2022-12-01T04:54:44.751Z,97829.47
2022-12-01T04:58:48.989Z,97828.66
2022-12-01T05:02:51.718Z,97830.34
2022-12-01T05:06:55.594Z,97831.75
2022-12-01T05:10:58.900Z,97829.47
2022-12-01T05:15:03.022Z,97831.44
2022-12-01T05:19:24.351Z,97821.22
2022-12-01T05:23:28.659Z,97824.03
2022-12-01T05:27:31.374Z,97823.19
2022-12-01T05:31:35.793Z,97830.03
2022-12-01T05:35:38.516Z,97824.88
2022-12-01T05:39:41.257Z,97824.72
2022-12-01T05:43:43.991Z,97828.38
2022-12-01T05:47:48.662Z,97819.28
2022-12-01T05:51:51.539Z,97827.94
2022-12-01T05:55:54.820Z,97824.84
2022-12-01T05:59:57.532Z,97826.41
2022-12-01T06:04:01.583Z,97834.97
2022-12-01T06:08:04.359Z,97835.94
2022-12-01T06:12:07.368Z,97833.97
2022-12-01T06:16:10.148Z,97826.13
2022-12-01T06:20:14.727Z,97837.63
2022-12-01T06:24:17.427Z,97843.47
2022-12-01T06:28:20.253Z,97844.22
2022-12-01T06:32:22.929Z,97839.84
2022-12-01T06:36:27.007Z,97848.25
2022-12-01T06:40:29.712Z,97843.22
2022-12-01T06:44:33.205Z,97840.41
2022-12-01T06:48:36.042Z,97854.28
2022-12-01T06:52:40.069Z,97850.63
2022-12-01T06:56:43.217Z,97851.47
2022-12-01T07:00:51.743Z,97849.94
2022-12-01T07:04:54.913Z,97851.63
2022-12-01T07:08:59.143Z,97856.38
2022-12-01T07:13:01.880Z,97856.66
2022-12-01T07:17:05.252Z,97866.19
2022-12-01T07:21:12.660Z,97862.41
2022-12-01T07:25:16.913Z,97856.63
2022-12-01T07:29:19.747Z,97873.59
2022-12-01T07:33:23.164Z,97877.66
2022-12-01T07:37:26.142Z,97860.69
2022-12-01T07:41:30.141Z,97873.81
2022-12-01T07:45:32.786Z,97870.47
2022-12-01T07:49:35.541Z,97862.88
2022-12-01T07:53:39.254Z,97865.19
2022-12-01T07:57:43.321Z,97872.31
2022-12-01T08:01:46.350Z,97864.00
2022-12-01T08:05:58.060Z,97871.19
2022-12-01T08:10:00.785Z,97873.41
2022-12-01T08:14:04.829Z,97880.84
2022-12-01T08:18:08.149Z,97882.19
2022-12-01T08:22:10.805Z,97877.78
2022-12-01T08:26:16.140Z,97878.94
2022-12-01T08:30:20.229Z,97886.00
2022-12-01T08:34:22.926Z,97886.22
2022-12-01T08:38:25.610Z,97876.38
2022-12-01T08:42:28.400Z,97883.47
2022-12-01T08:46:35.760Z,97889.19
2022-12-01T08:50:38.577Z,97895.19
2022-12-01T08:54:41.290Z,97886.63
2022-12-01T08:58:43.997Z,97898.34
2022-12-01T09:02:48.247Z,97892.06
2022-12-01T09:06:52.714Z,97891.63
2022-12-01T09:10:55.329Z,97898.94
2022-12-01T09:14:58.063Z,97905.03
2022-12-01T09:19:02.742Z,97911.72
2022-12-01T09:23:05.363Z,97918.97
2022-12-01T09:27:08.184Z,97913.16
2022-12-01T09:31:13.320Z,97910.97
2022-12-01T09:35:23.046Z,97898.06
2022-12-01T09:39:26.453Z,97902.19
2022-12-01T09:43:35.251Z,97899.59
2022-12-01T09:47:40.069Z,97885.72
2022-12-01T09:51:44.275Z,97883.53
2022-12-01T09:55:47.438Z,97892.50
2022-12-01T09:59:52.853Z,97887.69
2022-12-01T10:03:58.953Z,97885.94
2022-12-01T10:08:06.553Z,97878.41
2022-12-01T10:12:15.137Z,97883.09
2022-12-01T10:16:26.460Z,97883.56
2022-12-01T10:20:37.050Z,97883.19
2022-12-01T10:24:55.073Z,97870.81
2022-12-01T10:29:12.983Z,97869.47
2022-12-01T10:33:25.119Z,97864.13
2022-12-01T10:37:31.069Z,97858.25
2022-12-01T10:41:38.711Z,97860.78
2022-12-01T10:45:44.999Z,97858.94
2022-12-01T10:49:48.024Z,97853.75
2022-12-01T10:53:52.352Z,97853.72
2022-12-01T10:58:04.719Z,97846.53
2022-12-01T11:02:17.296Z,97846.06
2022-12-01T11:06:23.811Z,97850.91
2022-12-01T11:10:28.690Z,97845.72
2022-12-01T11:14:42.256Z,97840.38
2022-12-01T11:18:45.010Z,97839.69
2022-12-01T11:22:47.672Z,97841.69
2022-12-01T11:26:50.397Z,97836.84
2022-12-01T11:30:58.543Z,97821.31
2022-12-01T11:35:04.504Z,97824.28
2022-12-01T11:39:07.225Z,97828.47
2022-12-01T11:43:25.675Z,97824.78
2022-12-01T11:47:29.995Z,97826.97
2022-12-01T11:51:37.452Z,97815.38
2022-12-01T11:55:40.282Z,97822.28
2022-12-01T11:59:42.937Z,97820.75
2022-12-01T12:03:58.836Z,97825.78
2022-12-01T12:08:10.987Z,97816.75
2022-12-01T12:12:26.258Z,97809.19
2022-12-01T12:16:39.029Z,97813.59
2022-12-01T12:20:58.022Z,97819.78
2022-12-01T12:25:20.814Z,97818.94
2022-12-01T12:29:42.590Z,97792.56
2022-12-01T12:34:05.735Z,97797.50
2022-12-01T12:38:17.520Z,97795.47
2022-12-01T12:42:32.567Z,97803.06
2022-12-01T12:46:46.852Z,97793.84
2022-12-01T12:50:57.505Z,97799.38
2022-12-01T12:55:04.939Z,97801.41
2022-12-01T12:59:13.024Z,97801.72
2022-12-01T13:03:22.216Z,97800.34
2022-12-01T13:07:35.557Z,97802.56
2022-12-01T13:11:45.398Z,97801.19
2022-12-01T13:15:50.177Z,97797.69
2022-12-01T13:19:52.922Z,97798.50
2022-12-01T13:23:55.837Z,97806.41
2022-12-01T13:28:04.000Z,97797.69
2022-12-01T13:32:08.423Z,97803.69
2022-12-01T13:36:45.336Z,97800.69
2022-12-01T13:40:36.790Z,97804.06
2022-12-01T13:44:43.066Z,97813.56
2022-12-01T13:48:53.678Z,97804.06
2022-12-01T13:53:12.150Z,97801.19
2022-12-01T13:57:26.779Z,97795.16
2022-12-01T14:01:49.033Z,97792.66
2022-12-01T14:05:57.107Z,97790.81
2022-12-01T14:10:30.090Z,97792.47
2022-12-01T14:14:38.462Z,97783.63
2022-12-01T14:18:45.233Z,97786.47
2022-12-01T14:22:50.953Z,97778.13
2022-12-01T14:26:54.015Z,97774.94
2022-12-01T14:31:03.864Z,97775.94
2022-12-01T14:35:14.895Z,97779.94
2022-12-01T14:39:21.717Z,97776.78
2022-12-01T14:43:44.473Z,97787.94
2022-12-01T14:47:53.690Z,97785.28
2022-12-01T14:52:05.414Z,97776.41
2022-12-01T14:56:12.305Z,97767.56
2022-12-01T15:00:17.949Z,97782.97
2022-12-01T15:04:20.919Z,97774.94
2022-12-01T15:08:53.194Z,97776.09
2022-12-01T15:12:51.962Z,97779.75
2022-12-01T15:16:54.757Z,97781.63
2022-12-01T17:26:21.852Z,97773.94
2022-12-01T17:30:25.279Z,97778.66
2022-12-01T17:34:28.308Z,97777.81
2022-12-01T17:38:31.154Z,97773.09
2022-12-01T17:42:35.540Z,97780.81
2022-12-01T17:46:38.476Z,97781.81
2022-12-01T17:50:41.628Z,97788.50
2022-12-01T17:54:44.426Z,97784.31
2022-12-01T17:58:50.547Z,97787.50
2022-12-01T18:02:53.463Z,97789.16
2022-12-01T18:06:56.269Z,97781.81
2022-12-01T18:11:02.153Z,97796.38
2022-12-01T18:15:08.166Z,97793.03
2022-12-01T18:19:11.654Z,97800.53
2022-12-01T18:23:14.407Z,97801.41
2022-12-01T18:27:17.218Z,97803.75
2022-12-01T18:31:21.659Z,97803.41
2022-12-01T18:35:28.822Z,97808.06
2022-12-01T18:39:34.904Z,97802.88
2022-12-01T18:43:38.196Z,97798.00
2022-12-01T18:47:42.354Z,97805.03
2022-12-01T18:51:45.059Z,97801.84
2022-12-01T18:55:47.733Z,97807.72
2022-12-01T18:59:51.094Z,97804.06
2022-12-01T19:03:57.792Z,97811.59
2022-12-01T19:08:00.728Z,97807.88
2022-12-01T19:12:03.458Z,97812.63
2022-12-01T19:16:07.771Z,97815.97
2022-12-01T19:20:13.396Z,97814.63
2022-12-01T19:24:16.483Z,97817.44
2022-12-01T19:28:19.225Z,97806.75
2022-12-01T19:32:22.247Z,97798.22
2022-12-01T19:36:28.292Z,97807.22
2022-12-01T19:40:30.989Z,97807.06
2022-12-01T19:44:33.704Z,97808.91
2022-12-01T19:48:36.866Z,97803.03
2022-12-01T19:52:41.736Z,97806.88
2022-12-01T19:56:45.005Z,97804.34
2022-12-01T20:00:47.995Z,97806.88
2022-12-01T20:04:51.153Z,97809.72
2022-12-01T20:08:56.635Z,97806.66
2022-12-01T20:12:59.322Z,97817.53
2022-12-01T20:17:02.305Z,97818.38
2022-12-01T20:21:07.450Z,97820.53
2022-12-01T20:25:11.620Z,97808.47
2022-12-01T20:29:17.007Z,97816.34
2022-12-01T20:33:19.697Z,97828.03
2022-12-01T20:37:22.605Z,97822.00
2022-12-01T20:41:26.645Z,97817.44
2022-12-01T20:45:29.550Z,97810.25
2022-12-01T20:49:32.970Z,97820.94
2022-12-01T20:53:36.675Z,97816.28
2022-12-01T20:57:40.743Z,97814.25
2022-12-01T21:01:43.723Z,97804.19
2022-12-01T21:05:46.418Z,97810.84
2022-12-01T21:09:49.344Z,97807.50
2022-12-01T21:13:54.031Z,97815.69
2022-12-01T21:18:00.137Z,97817.00
2022-12-01T21:22:03.021Z,97806.16
2022-12-01T21:26:10.612Z,97819.22
2022-12-01T21:30:21.957Z,97817.31
2022-12-01T21:34:25.966Z,97819.50
2022-12-01T21:38:28.985Z,97813.00
2022-12-01T21:42:32.809Z,97806.16
2022-12-01T21:46:39.716Z,97819.38
2022-12-01T21:50:42.550Z,97815.38
2022-12-01T21:54:45.397Z,97810.50
2022-12-01T21:58:48.940Z,97802.81
2022-12-01T22:02:59.502Z,97800.97
2022-12-01T22:07:03.343Z,97811.19
2022-12-01T22:11:11.671Z,97800.97
2022-12-01T22:15:40.838Z,97798.44
2022-12-01T22:19:47.885Z,97792.75
2022-12-01T22:23:52.810Z,97793.59
2022-12-01T22:27:58.170Z,97796.41
2022-12-01T22:32:27.616Z,97794.75
2022-12-01T22:36:33.343Z,97784.06
2022-12-01T22:40:39.546Z,97777.03
2022-12-01T22:44:44.968Z,97771.16
2022-12-01T22:48:50.067Z,97768.81
2022-12-01T22:52:55.037Z,97768.97
2022-12-01T22:57:25.485Z,97768.59
2022-12-01T23:01:30.363Z,97758.94
2022-12-01T23:05:33.065Z,97757.09
2022-12-01T23:09:42.899Z,97757.56
2022-12-01T23:13:45.644Z,97738.50
2022-12-01T23:17:48.787Z,97745.53
2022-12-01T23:21:53.538Z,97747.81
2022-12-01T23:25:57.865Z,97735.81
2022-12-01T23:30:00.533Z,97735.53
2022-12-01T23:34:03.156Z,97722.63
2022-12-01T23:38:06.829Z,97723.94
2022-12-01T23:42:13.784Z,97716.25
2022-12-01T23:46:19.407Z,97713.75
2022-12-01T23:50:24.369Z,97708.72
2022-12-01T23:54:30.188Z,97707.72
2022-12-01T23:58:35.121Z,97697.53
